createdAt,value
2022-10-31T00:01:24.992Z,17.77
2022-10-31T00:02:56.794Z,17.74
2022-10-31T00:04:28.618Z,17.69
2022-10-31T00:06:02.625Z,17.63
2022-10-31T00:07:34.255Z,17.62
2022-10-31T00:09:06.081Z,17.64
2022-10-31T00:10:39.010Z,17.67
2022-10-31T00:12:10.611Z,17.70
2022-10-31T00:13:42.374Z,17.75
2022-10-31T00:15:14.032Z,17.73
2022-10-31T00:16:45.650Z,17.72
2022-10-31T00:18:17.252Z,17.71
2022-10-31T00:19:48.870Z,17.68
2022-10-31T00:21:22.833Z,17.65
2022-10-31T00:22:54.482Z,17.62
2022-10-31T00:24:26.154Z,17.61
2022-10-31T00:26:01.641Z,17.62
2022-10-31T00:27:33.211Z,17.64
2022-10-31T00:29:05.089Z,17.62
2022-10-31T00:30:37.282Z,17.60
2022-10-31T00:32:08.898Z,17.61
2022-10-31T00:33:41.461Z,17.59
2022-10-31T00:35:13.211Z,17.59
2022-10-31T00:36:46.192Z,17.60
2022-10-31T00:38:18.755Z,17.57
2022-10-31T00:39:50.534Z,17.54
2022-10-31T00:41:22.217Z,17.52
2022-10-31T00:42:54.073Z,17.50
2022-10-31T00:44:25.723Z,17.49
2022-10-31T00:45:58.291Z,17.51
2022-10-31T00:47:30.027Z,17.53
2022-10-31T00:49:01.740Z,17.56
2022-10-31T00:50:33.382Z,17.55
2022-10-31T00:52:06.478Z,17.54
2022-10-31T00:53:38.651Z,17.47
2022-10-31T00:55:10.369Z,17.44
2022-10-31T00:56:42.219Z,17.39
2022-10-31T00:59:46.459Z,17.34
2022-10-31T01:01:18.175Z,17.34
2022-10-31T01:02:50.260Z,17.37
2022-10-31T01:04:22.005Z,17.41
2022-10-31T01:06:02.060Z,17.43
2022-10-31T01:07:38.295Z,17.44
2022-10-31T01:09:09.967Z,17.47
2022-10-31T01:10:41.587Z,17.50
2022-10-31T01:12:13.877Z,17.54
2022-10-31T01:13:46.527Z,17.58
2022-10-31T01:15:22.267Z,17.62
2022-10-31T01:16:53.897Z,17.62
2022-10-31T01:18:27.341Z,17.65
2022-10-31T01:19:58.947Z,17.67
2022-10-31T01:21:32.895Z,17.68
2022-10-31T01:23:05.824Z,17.68
2022-10-31T01:24:37.476Z,17.64
2022-10-31T01:26:11.393Z,17.60
2022-10-31T01:27:45.416Z,17.59
2022-10-31T01:29:17.060Z,17.59
2022-10-31T01:30:48.734Z,17.59
2022-10-31T01:32:20.432Z,17.60
2022-10-31T01:33:52.317Z,17.58
2022-10-31T01:35:23.988Z,17.54
2022-10-31T01:36:55.571Z,17.51
2022-10-31T01:38:29.200Z,17.43
2022-10-31T01:40:00.862Z,17.34
2022-10-31T01:41:35.557Z,17.30
2022-10-31T01:43:13.848Z,17.31
2022-10-31T01:44:52.514Z,17.30
2022-10-31T01:46:26.526Z,17.31
2022-10-31T01:47:58.495Z,17.30
2022-10-31T01:49:38.453Z,17.32
2022-10-31T01:51:13.509Z,17.32
2022-10-31T01:52:48.331Z,17.35
2022-10-31T01:54:24.936Z,17.37
2022-10-31T01:55:56.643Z,17.35
2022-10-31T01:57:29.821Z,17.35
2022-10-31T01:59:06.016Z,17.35
2022-10-31T02:00:39.801Z,17.34
2022-10-31T02:02:12.906Z,17.27
2022-10-31T02:03:47.102Z,17.24
2022-10-31T02:05:22.812Z,17.22
2022-10-31T02:06:57.432Z,17.21
2022-10-31T02:08:30.944Z,17.20
2022-10-31T02:10:05.339Z,17.18
2022-10-31T02:11:38.012Z,17.14
2022-10-31T02:13:10.114Z,17.10
2022-10-31T02:14:48.921Z,17.02
2022-10-31T02:16:20.550Z,16.96
2022-10-31T02:17:52.911Z,16.93
2022-10-31T02:19:33.987Z,16.89
2022-10-31T02:21:11.244Z,16.86
2022-10-31T02:23:03.235Z,16.87
2022-10-31T02:24:50.570Z,16.92
2022-10-31T02:26:44.358Z,16.96
2022-10-31T02:28:41.487Z,16.98
2022-10-31T02:30:17.016Z,16.99
2022-10-31T02:31:56.972Z,17.00
2022-10-31T02:33:36.130Z,17.03
2022-10-31T02:35:17.135Z,17.05
2022-10-31T02:36:55.268Z,17.08
2022-10-31T02:38:39.733Z,17.10
2022-10-31T02:40:22.867Z,17.07
2022-10-31T02:42:18.455Z,17.04
2022-10-31T02:44:00.198Z,17.02
2022-10-31T02:45:40.096Z,17.04
2022-10-31T02:47:17.399Z,17.06
2022-10-31T02:48:52.119Z,17.08
2022-10-31T02:50:29.481Z,17.09
2022-10-31T02:52:01.175Z,17.06
2022-10-31T02:53:34.735Z,17.00
2022-10-31T02:55:34.056Z,16.96
2022-10-31T02:57:09.089Z,16.90
2022-10-31T02:58:45.907Z,16.86
2022-10-31T03:00:19.250Z,16.84
2022-10-31T03:02:10.014Z,16.83
2022-10-31T03:03:59.031Z,16.83
2022-10-31T03:05:49.164Z,16.84
2022-10-31T03:07:30.022Z,16.83
2022-10-31T03:09:14.482Z,16.82
2022-10-31T03:10:52.735Z,16.77
2022-10-31T03:12:29.483Z,16.72
2022-10-31T03:14:10.159Z,16.71
2022-10-31T03:15:46.090Z,16.71
2022-10-31T03:17:24.920Z,16.67
2022-10-31T03:19:03.406Z,16.64
2022-10-31T03:20:39.121Z,16.62
2022-10-31T03:22:17.834Z,16.60
2022-10-31T03:23:52.471Z,16.58
2022-10-31T03:25:27.001Z,16.52
2022-10-31T03:27:02.946Z,16.53
2022-10-31T03:28:42.937Z,16.50
2022-10-31T03:30:16.176Z,16.49
2022-10-31T03:32:03.613Z,16.49
2022-10-31T03:33:38.064Z,16.49
2022-10-31T03:35:15.114Z,16.41
2022-10-31T03:36:50.343Z,16.37
2022-10-31T03:38:23.363Z,16.36
2022-10-31T03:39:58.081Z,16.36
2022-10-31T03:41:35.433Z,16.38
2022-10-31T03:43:11.570Z,16.38
2022-10-31T03:44:47.929Z,16.39
2022-10-31T03:46:19.797Z,16.37
2022-10-31T03:47:53.316Z,16.36
2022-10-31T03:49:25.137Z,16.36
2022-10-31T03:51:05.584Z,16.38
2022-10-31T03:52:44.367Z,16.34
2022-10-31T03:54:25.240Z,16.30
2022-10-31T03:56:01.880Z,16.29
2022-10-31T03:57:39.295Z,16.25
2022-10-31T03:59:19.047Z,16.22
2022-10-31T04:00:53.315Z,16.18
2022-10-31T04:02:31.012Z,16.07
2022-10-31T04:04:03.440Z,15.99
2022-10-31T04:05:36.386Z,15.97
2022-10-31T04:07:11.658Z,16.01
2022-10-31T04:08:49.434Z,16.00
2022-10-31T04:10:30.073Z,16.02
2022-10-31T04:12:09.671Z,16.00
2022-10-31T04:14:09.416Z,15.97
2022-10-31T04:15:44.367Z,15.97
2022-10-31T04:17:19.614Z,15.98
2022-10-31T04:18:51.588Z,16.01
2022-10-31T04:20:31.148Z,16.02
2022-10-31T04:22:02.854Z,16.00
2022-10-31T04:23:37.235Z,15.96
2022-10-31T04:25:22.543Z,15.91
2022-10-31T04:26:54.294Z,15.90
2022-10-31T04:28:28.504Z,15.88
2022-10-31T04:30:00.730Z,15.86
2022-10-31T04:31:33.408Z,15.84
2022-10-31T04:33:05.082Z,15.84
2022-10-31T04:34:37.069Z,15.86
2022-10-31T04:36:10.874Z,15.90
2022-10-31T04:37:42.749Z,15.92
2022-10-31T04:39:15.791Z,15.94
2022-10-31T04:40:54.547Z,15.90
2022-10-31T04:42:38.265Z,15.80
2022-10-31T04:44:12.589Z,15.70
2022-10-31T04:45:44.309Z,15.66
2022-10-31T04:47:16.565Z,15.63
2022-10-31T04:48:49.738Z,15.65
2022-10-31T04:50:22.178Z,15.69
2022-10-31T04:51:53.872Z,15.70
2022-10-31T04:53:25.511Z,15.70
2022-10-31T04:55:17.086Z,15.69
2022-10-31T04:57:08.736Z,15.70
2022-10-31T04:58:40.583Z,15.72
2022-10-31T05:00:16.179Z,15.74
2022-10-31T05:01:47.994Z,15.77
2022-10-31T05:03:19.912Z,15.77
2022-10-31T05:04:51.989Z,15.74
2022-10-31T05:06:24.163Z,15.71
2022-10-31T05:07:56.470Z,15.69
2022-10-31T05:09:30.588Z,15.65
2022-10-31T05:11:04.886Z,15.65
2022-10-31T05:12:37.267Z,15.65
2022-10-31T05:14:11.630Z,15.67
2022-10-31T05:16:15.885Z,15.65
2022-10-31T05:17:50.813Z,15.66
2022-10-31T05:19:41.302Z,15.69
2022-10-31T05:21:32.964Z,15.72
2022-10-31T05:23:07.312Z,15.74
2022-10-31T05:24:39.078Z,15.74
2022-10-31T05:26:12.132Z,15.76
2022-10-31T05:27:46.408Z,15.76
2022-10-31T05:29:18.093Z,15.75
2022-10-31T05:30:50.323Z,15.77
2022-10-31T05:32:22.024Z,15.80
2022-10-31T05:34:25.736Z,15.79
2022-10-31T05:36:16.223Z,15.79
2022-10-31T05:37:55.796Z,15.80
2022-10-31T05:39:27.547Z,15.80
2022-10-31T05:41:03.239Z,15.79
2022-10-31T05:42:41.134Z,15.76
2022-10-31T05:44:12.856Z,15.78
2022-10-31T05:45:57.523Z,15.76
2022-10-31T05:48:05.472Z,15.77
2022-10-31T05:50:00.124Z,15.75
2022-10-31T05:51:51.321Z,15.74
2022-10-31T05:53:24.170Z,15.71
2022-10-31T05:54:55.827Z,15.73
2022-10-31T05:56:27.552Z,15.74
2022-10-31T05:58:01.424Z,15.73
2022-10-31T05:59:33.992Z,15.74
2022-10-31T06:01:06.752Z,15.72
2022-10-31T06:02:38.587Z,15.69
2022-10-31T06:04:33.929Z,15.70
2022-10-31T06:06:06.170Z,15.69
2022-10-31T06:07:43.451Z,15.66
2022-10-31T06:09:15.140Z,15.64
2022-10-31T06:10:48.422Z,15.61
2022-10-31T06:12:24.521Z,15.60
2022-10-31T06:14:15.988Z,15.60
2022-10-31T06:15:55.813Z,15.63
2022-10-31T06:17:31.189Z,15.63
2022-10-31T06:19:41.441Z,15.58
2022-10-31T06:21:17.961Z,15.58
2022-10-31T06:22:51.338Z,15.55
2022-10-31T06:24:23.414Z,15.56
2022-10-31T06:26:15.430Z,15.54
2022-10-31T06:27:47.176Z,15.56
2022-10-31T06:29:21.669Z,15.56
2022-10-31T06:31:19.475Z,15.57
2022-10-31T06:32:51.135Z,15.58
2022-10-31T06:34:24.774Z,15.53
2022-10-31T06:35:56.412Z,15.48
2022-10-31T06:37:28.528Z,15.48
2022-10-31T06:39:06.754Z,15.47
2022-10-31T06:40:38.552Z,15.43
2022-10-31T06:42:21.913Z,15.45
2022-10-31T06:43:53.540Z,15.45
2022-10-31T06:45:52.447Z,15.45
2022-10-31T06:47:41.416Z,15.41
2022-10-31T06:49:22.544Z,15.37
2022-10-31T06:51:04.793Z,15.35
2022-10-31T06:52:37.389Z,15.35
2022-10-31T06:54:10.029Z,15.34
2022-10-31T06:55:43.691Z,15.35
2022-10-31T06:57:15.306Z,15.33
2022-10-31T06:58:46.963Z,15.31
2022-10-31T07:00:19.684Z,15.27
2022-10-31T07:01:55.716Z,15.27
2022-10-31T07:03:27.530Z,15.29
2022-10-31T07:04:59.190Z,15.32
2022-10-31T07:06:30.982Z,15.37
2022-10-31T07:08:04.389Z,15.43
2022-10-31T07:09:36.224Z,15.47
2022-10-31T07:11:09.616Z,15.51
2022-10-31T07:12:42.022Z,15.51
2022-10-31T07:14:14.315Z,15.53
2022-10-31T07:15:47.272Z,15.55
2022-10-31T07:17:20.228Z,15.56
2022-10-31T07:18:52.062Z,15.55
2022-10-31T07:20:23.778Z,15.55
2022-10-31T07:21:55.708Z,15.54
2022-10-31T07:23:29.353Z,15.53
2022-10-31T07:25:19.775Z,15.53
2022-10-31T07:27:10.029Z,15.50
2022-10-31T07:28:41.708Z,15.53
2022-10-31T07:30:14.697Z,15.54
2022-10-31T07:31:46.888Z,15.58
2022-10-31T07:33:29.617Z,15.63
2022-10-31T07:35:29.018Z,15.68
2022-10-31T07:37:04.063Z,15.72
2022-10-31T07:38:35.766Z,15.75
2022-10-31T07:40:11.038Z,15.78
2022-10-31T07:41:42.760Z,15.76
2022-10-31T07:43:14.964Z,15.78
2022-10-31T07:45:11.986Z,15.81
2022-10-31T07:47:09.632Z,15.83
2022-10-31T07:49:01.296Z,15.87
2022-10-31T07:50:51.420Z,15.91
2022-10-31T07:52:41.817Z,15.96
2022-10-31T07:54:36.453Z,15.97
2022-10-31T07:56:08.324Z,15.98
2022-10-31T07:57:40.032Z,16.00
2022-10-31T07:59:11.981Z,15.99
2022-10-31T08:00:45.558Z,15.97
2022-10-31T08:02:21.855Z,15.97
2022-10-31T08:03:53.502Z,16.01
2022-10-31T08:05:48.320Z,16.05
2022-10-31T08:07:39.515Z,16.08
2022-10-31T08:09:17.246Z,16.12
2022-10-31T08:10:49.939Z,16.12
2022-10-31T08:12:21.922Z,16.12
2022-10-31T08:13:53.574Z,16.16
2022-10-31T08:15:25.646Z,16.21
2022-10-31T08:16:57.284Z,16.27
2022-10-31T08:18:34.012Z,16.31
2022-10-31T08:20:06.976Z,16.39
2022-10-31T08:21:46.605Z,16.45
2022-10-31T08:23:18.307Z,16.51
2022-10-31T08:24:50.444Z,16.57
2022-10-31T08:26:22.615Z,16.63
2022-10-31T08:27:58.094Z,16.67
2022-10-31T08:29:30.346Z,16.70
2022-10-31T08:31:02.055Z,16.74
2022-10-31T08:33:04.885Z,16.78
2022-10-31T08:34:59.856Z,16.81
2022-10-31T08:36:51.347Z,16.83
2022-10-31T08:38:30.894Z,16.80
2022-10-31T08:40:02.641Z,16.82
2022-10-31T08:41:39.104Z,16.85
2022-10-31T08:43:16.625Z,16.87
2022-10-31T08:44:48.551Z,16.87
2022-10-31T08:46:20.367Z,16.90
2022-10-31T08:47:53.132Z,16.95
2022-10-31T08:49:24.992Z,16.95
2022-10-31T08:50:59.077Z,16.95
2022-10-31T08:52:58.925Z,16.95
2022-10-31T08:54:24.428Z,16.93
2022-10-31T08:56:01.984Z,16.95
2022-10-31T08:57:33.675Z,16.96
2022-10-31T08:59:05.307Z,16.98
2022-10-31T09:00:52.151Z,17.01
2022-10-31T09:02:25.941Z,17.08
2022-10-31T09:04:02.667Z,17.12
2022-10-31T09:05:35.008Z,17.17
2022-10-31T09:07:22.065Z,17.23
2022-10-31T09:08:55.316Z,17.28
2022-10-31T09:10:29.107Z,17.34
2022-10-31T09:12:00.724Z,17.37
2022-10-31T09:13:52.783Z,17.35
2022-10-31T09:15:39.286Z,17.41
2022-10-31T09:17:27.663Z,17.46
2022-10-31T09:19:19.259Z,17.51
2022-10-31T09:20:52.139Z,17.54
2022-10-31T09:22:23.918Z,17.55
2022-10-31T09:23:56.889Z,17.54
2022-10-31T09:25:29.492Z,17.59
2022-10-31T09:27:21.093Z,17.67
2022-10-31T09:28:53.564Z,17.75
2022-10-31T09:30:25.872Z,17.82
2022-10-31T09:31:57.691Z,17.91
2022-10-31T09:33:34.137Z,18.00
2022-10-31T09:35:26.244Z,18.12
2022-10-31T09:36:59.957Z,18.17
2022-10-31T09:38:32.322Z,18.26
2022-10-31T09:40:06.391Z,18.38
2022-10-31T09:42:04.794Z,18.45
2022-10-31T09:43:47.556Z,18.49
2022-10-31T09:45:28.173Z,18.50
2022-10-31T09:47:10.314Z,18.47
2022-10-31T09:49:00.218Z,18.47
2022-10-31T09:50:49.511Z,18.44
2022-10-31T09:53:05.405Z,18.38
2022-10-31T09:54:44.147Z,18.33
2022-10-31T09:56:19.911Z,18.30
2022-10-31T09:57:53.790Z,18.29
2022-10-31T09:59:31.179Z,18.26
2022-10-31T10:01:06.181Z,18.26
2022-10-31T10:02:44.245Z,18.32
2022-10-31T10:04:40.343Z,18.40
2022-10-31T10:06:34.801Z,18.50
2022-10-31T10:08:36.481Z,18.63
2022-10-31T10:10:47.076Z,18.74
2022-10-31T10:12:58.420Z,18.80
2022-10-31T10:14:43.335Z,18.82
2022-10-31T10:16:34.113Z,18.84
2022-10-31T10:18:17.353Z,18.84
2022-10-31T10:20:03.504Z,18.85
2022-10-31T10:21:45.764Z,18.85
2022-10-31T10:23:37.063Z,18.83
2022-10-31T10:25:22.896Z,18.83
2022-10-31T10:27:06.584Z,18.87
2022-10-31T10:28:42.894Z,18.87
2022-10-31T10:30:18.311Z,18.86
2022-10-31T10:31:52.546Z,18.86
2022-10-31T10:33:29.170Z,18.87
2022-10-31T10:35:18.488Z,18.87
2022-10-31T10:36:55.423Z,18.87
2022-10-31T10:38:37.461Z,18.89
2022-10-31T10:40:15.999Z,18.90
2022-10-31T10:42:08.365Z,18.90
2022-10-31T10:43:41.312Z,18.91
2022-10-31T10:45:36.934Z,18.93
2022-10-31T10:47:27.295Z,18.95
2022-10-31T10:49:05.656Z,18.98
2022-10-31T10:50:43.055Z,19.01
2022-10-31T10:52:40.867Z,19.05
2022-10-31T10:54:42.336Z,19.12
2022-10-31T10:56:18.702Z,19.21
2022-10-31T10:57:57.131Z,19.28
2022-10-31T10:59:31.414Z,19.33
2022-10-31T11:01:12.141Z,19.40
2022-10-31T11:02:46.522Z,19.43
2022-10-31T11:04:29.099Z,19.47
2022-10-31T11:06:02.398Z,19.51
2022-10-31T11:07:40.885Z,19.56
2022-10-31T11:09:12.741Z,19.58
2022-10-31T11:10:44.392Z,19.62
2022-10-31T11:12:21.929Z,19.59
2022-10-31T11:13:58.951Z,19.60
2022-10-31T11:15:34.897Z,19.51
2022-10-31T11:17:16.923Z,19.48
2022-10-31T11:18:48.930Z,19.47
2022-10-31T11:20:32.692Z,19.46
2022-10-31T11:22:09.151Z,19.50
2022-10-31T11:23:40.769Z,19.53
2022-10-31T11:25:22.721Z,19.54
2022-10-31T11:27:12.626Z,19.58
2022-10-31T11:28:44.975Z,19.60
2022-10-31T11:30:16.846Z,19.66
2022-10-31T11:31:52.704Z,19.74
2022-10-31T11:33:29.882Z,19.79
2022-10-31T11:35:10.047Z,19.82
2022-10-31T11:36:45.104Z,19.84
2022-10-31T11:38:21.119Z,19.87
2022-10-31T11:39:54.703Z,19.88
2022-10-31T11:41:29.249Z,19.93
2022-10-31T11:43:01.050Z,19.97
2022-10-31T11:44:33.611Z,19.98
2022-10-31T11:46:10.912Z,20.01
2022-10-31T11:47:48.776Z,20.00
2022-10-31T11:49:26.903Z,20.03
2022-10-31T11:50:59.578Z,20.07
2022-10-31T11:52:33.039Z,20.14
2022-10-31T11:54:05.794Z,20.18
2022-10-31T11:55:39.507Z,20.22
2022-10-31T11:57:24.277Z,20.25
2022-10-31T11:58:57.342Z,20.28
2022-10-31T12:00:30.915Z,20.30
2022-10-31T12:02:03.232Z,20.33
2022-10-31T12:03:49.287Z,20.30
2022-10-31T12:05:28.627Z,20.35
2022-10-31T12:07:00.549Z,20.37
2022-10-31T12:08:34.934Z,20.42
2022-10-31T12:10:11.789Z,20.48
2022-10-31T12:11:53.826Z,20.52
2022-10-31T12:13:34.990Z,20.56
2022-10-31T12:15:22.017Z,20.59
2022-10-31T12:17:00.166Z,20.58
2022-10-31T12:18:59.355Z,20.59
2022-10-31T12:20:42.604Z,20.63
2022-10-31T12:22:21.481Z,20.67
2022-10-31T12:24:06.491Z,20.67
2022-10-31T12:25:45.735Z,20.64
2022-10-31T12:27:29.851Z,20.62
2022-10-31T12:29:19.024Z,20.62
2022-10-31T12:31:04.226Z,20.61
2022-10-31T12:32:47.760Z,20.59
2022-10-31T12:34:50.558Z,20.56
2022-10-31T12:36:33.042Z,20.59
2022-10-31T12:38:21.637Z,20.55
2022-10-31T12:40:06.161Z,20.57
2022-10-31T12:41:47.274Z,20.62
2022-10-31T12:43:37.593Z,20.67
2022-10-31T12:45:24.571Z,20.71
2022-10-31T12:47:11.879Z,20.71
2022-10-31T12:49:18.942Z,20.66
2022-10-31T12:51:00.055Z,20.58
2022-10-31T12:52:45.840Z,20.57
2022-10-31T12:54:30.403Z,20.59
2022-10-31T12:56:15.239Z,20.62
2022-10-31T12:57:51.911Z,20.63
2022-10-31T12:59:30.675Z,20.58
2022-10-31T13:01:09.264Z,20.59
2022-10-31T13:02:46.224Z,20.60
2022-10-31T13:04:24.831Z,20.61
2022-10-31T13:06:04.297Z,20.60
2022-10-31T13:07:41.959Z,20.63
2022-10-31T13:09:18.878Z,20.65
2022-10-31T13:10:56.558Z,20.67
2022-10-31T13:12:32.141Z,20.68
2022-10-31T13:14:12.592Z,20.73
2022-10-31T13:15:50.266Z,20.76
2022-10-31T13:17:28.826Z,20.82
2022-10-31T13:19:06.554Z,20.86
2022-10-31T13:20:42.992Z,20.87
2022-10-31T13:22:19.785Z,20.84
2022-10-31T13:23:54.987Z,20.80
2022-10-31T13:25:33.237Z,20.83
2022-10-31T13:27:14.239Z,20.83
2022-10-31T13:30:30.087Z,20.76
2022-10-31T13:32:06.226Z,20.72
2022-10-31T13:33:43.556Z,20.69
2022-10-31T13:35:22.519Z,20.68
2022-10-31T13:37:03.944Z,20.67
2022-10-31T13:38:41.553Z,20.67
2022-10-31T13:40:25.577Z,20.71
2022-10-31T13:42:04.192Z,20.80
2022-10-31T13:43:56.316Z,20.84
2022-10-31T13:45:28.040Z,20.84
2022-10-31T13:46:59.716Z,20.88
2022-10-31T13:48:40.562Z,20.94
2022-10-31T13:50:24.282Z,20.97
2022-10-31T13:52:16.599Z,20.94
2022-10-31T13:54:00.524Z,20.90
2022-10-31T13:55:43.313Z,20.93
2022-10-31T13:57:19.288Z,20.97
2022-10-31T13:59:06.373Z,20.93
2022-10-31T14:00:38.108Z,20.91
2022-10-31T14:02:16.778Z,20.88
2022-10-31T14:04:18.082Z,20.90
2022-10-31T14:05:54.463Z,20.88
2022-10-31T14:07:27.439Z,20.78
2022-10-31T14:09:00.454Z,20.77
2022-10-31T14:10:34.353Z,20.75
2022-10-31T14:12:09.369Z,20.69
2022-10-31T14:13:46.030Z,20.69
2022-10-31T14:15:20.212Z,20.75
2022-10-31T14:16:57.625Z,20.76
2022-10-31T14:18:33.249Z,20.76
2022-10-31T14:20:26.100Z,20.75
2022-10-31T14:21:57.764Z,20.76
2022-10-31T14:23:45.462Z,20.78
2022-10-31T14:25:30.698Z,20.72
2022-10-31T14:27:04.692Z,20.73
2022-10-31T14:28:36.796Z,20.71
2022-10-31T14:30:15.716Z,20.69
2022-10-31T14:31:54.542Z,20.68
2022-10-31T14:33:28.377Z,20.67
2022-10-31T14:35:00.837Z,20.65
2022-10-31T14:36:44.014Z,20.65
2022-10-31T14:38:37.808Z,20.65
2022-10-31T14:40:27.101Z,20.60
2022-10-31T14:42:14.945Z,20.57
2022-10-31T14:44:04.792Z,20.58
2022-10-31T14:45:46.942Z,20.61
2022-10-31T14:47:28.384Z,20.64
2022-10-31T14:49:13.689Z,20.66
2022-10-31T14:50:50.198Z,20.68
2022-10-31T14:52:22.208Z,20.68
2022-10-31T14:53:56.113Z,20.64
2022-10-31T14:55:28.392Z,20.65
2022-10-31T14:57:05.156Z,20.65
2022-10-31T14:58:40.666Z,20.62
2022-10-31T15:00:18.418Z,20.61
2022-10-31T15:01:57.964Z,20.56
2022-10-31T15:03:33.441Z,20.55
2022-10-31T15:05:10.011Z,20.59
2022-10-31T15:06:44.635Z,20.58
2022-10-31T15:08:30.065Z,20.52
2022-10-31T15:10:03.668Z,20.49
2022-10-31T15:11:38.893Z,20.49
2022-10-31T15:13:18.716Z,20.46
2022-10-31T15:14:50.198Z,20.41
2022-10-31T15:16:23.896Z,20.42
2022-10-31T15:17:57.357Z,20.34
2022-10-31T15:19:31.671Z,20.30
2022-10-31T15:21:05.407Z,20.27
2022-10-31T15:22:39.198Z,20.32
2022-10-31T15:24:13.326Z,20.30
2022-10-31T15:25:45.455Z,20.30
2022-10-31T15:27:18.479Z,20.31
2022-10-31T15:29:01.177Z,20.27
2022-10-31T15:30:32.788Z,20.26
2022-10-31T15:32:20.312Z,20.24
2022-10-31T15:33:55.476Z,20.25
2022-10-31T15:35:29.251Z,20.25
2022-10-31T15:37:00.961Z,20.23
2022-10-31T15:38:33.740Z,20.21
2022-10-31T15:40:08.474Z,20.19
2022-10-31T15:41:54.209Z,20.18
2022-10-31T15:43:35.162Z,20.15
2022-10-31T15:45:19.397Z,20.10
2022-10-31T15:46:57.118Z,20.12
2022-10-31T15:48:32.684Z,20.11
2022-10-31T15:50:13.509Z,20.08
2022-10-31T15:51:47.303Z,20.06
2022-10-31T15:53:25.653Z,20.06
2022-10-31T15:55:01.702Z,20.06
2022-10-31T15:56:33.579Z,20.03
2022-10-31T15:58:12.704Z,20.00
2022-10-31T15:59:48.156Z,19.96
2022-10-31T16:01:23.655Z,19.96
2022-10-31T16:03:06.622Z,19.97
2022-10-31T16:04:38.482Z,19.95
2022-10-31T16:06:21.752Z,19.95
2022-10-31T16:07:53.435Z,19.94
2022-10-31T16:09:27.375Z,19.90
2022-10-31T16:11:03.959Z,19.91
2022-10-31T16:12:37.517Z,19.92
2022-10-31T16:14:23.184Z,19.90
2022-10-31T16:16:28.904Z,19.89
2022-10-31T16:17:55.719Z,19.87
2022-10-31T16:19:33.354Z,19.84
2022-10-31T16:21:06.779Z,19.83
2022-10-31T16:22:40.304Z,19.81
2022-10-31T16:24:19.338Z,19.76
2022-10-31T16:25:52.160Z,19.72
2022-10-31T16:27:29.276Z,19.68
2022-10-31T16:29:05.793Z,19.66
2022-10-31T16:30:42.807Z,19.66
2022-10-31T16:32:30.392Z,19.66
2022-10-31T16:34:15.059Z,19.64
2022-10-31T16:35:46.923Z,19.63
2022-10-31T16:37:18.567Z,19.63
2022-10-31T16:38:50.236Z,19.64
2022-10-31T16:40:22.086Z,19.62
2022-10-31T16:41:57.047Z,19.60
2022-10-31T16:43:28.681Z,19.58
2022-10-31T16:45:00.866Z,19.58
2022-10-31T16:46:32.626Z,19.58
2022-10-31T16:48:07.093Z,19.55
2022-10-31T16:49:40.178Z,19.53
2022-10-31T16:51:11.815Z,19.53
2022-10-31T16:53:08.391Z,19.52
2022-10-31T16:54:38.129Z,19.53
2022-10-31T16:56:16.636Z,19.50
2022-10-31T16:57:51.306Z,19.48
2022-10-31T16:59:22.923Z,19.48
2022-10-31T17:00:55.139Z,19.47
2022-10-31T17:02:28.300Z,19.48
2022-10-31T17:04:01.819Z,19.47
2022-10-31T17:05:35.405Z,19.51
2022-10-31T17:07:07.114Z,19.53
2022-10-31T17:08:38.784Z,19.53
2022-10-31T17:10:12.045Z,19.51
2022-10-31T17:11:49.381Z,19.48
2022-10-31T17:13:24.102Z,19.50
2022-10-31T17:14:56.349Z,19.52
2022-10-31T17:16:28.005Z,19.54
2022-10-31T17:17:59.989Z,19.52
2022-10-31T17:19:31.757Z,19.53
2022-10-31T17:21:06.179Z,19.53
2022-10-31T17:24:15.708Z,19.53
2022-10-31T17:25:47.405Z,19.48
2022-10-31T17:27:20.737Z,19.45
2022-10-31T17:28:53.898Z,19.42
2022-10-31T17:30:26.299Z,19.42
2022-10-31T17:31:58.010Z,19.38
2022-10-31T17:33:29.670Z,19.33
2022-10-31T17:35:01.350Z,19.33
2022-10-31T17:36:35.095Z,19.34
2022-10-31T17:38:06.779Z,19.35
2022-10-31T17:39:38.399Z,19.33
2022-10-31T17:41:11.456Z,19.30
2022-10-31T17:42:43.580Z,19.27
2022-10-31T17:44:15.274Z,19.24
2022-10-31T17:45:47.403Z,19.24
2022-10-31T17:47:19.091Z,19.18
2022-10-31T17:48:50.933Z,19.19
2022-10-31T17:50:25.127Z,19.19
2022-10-31T17:51:58.171Z,19.18
2022-10-31T17:53:30.932Z,19.18
2022-10-31T17:55:02.643Z,19.18
2022-10-31T17:56:34.241Z,19.18
2022-10-31T17:58:06.129Z,19.16
2022-10-31T17:59:37.792Z,19.12
2022-10-31T18:01:11.378Z,19.11
2022-10-31T18:02:43.489Z,19.09
2022-10-31T18:04:15.393Z,19.07
2022-10-31T18:05:52.194Z,19.07
2022-10-31T18:07:25.213Z,19.04
2022-10-31T18:08:58.102Z,18.97
2022-10-31T18:10:29.843Z,18.96
2022-10-31T18:12:01.479Z,18.98
2022-10-31T18:13:33.145Z,18.96
2022-10-31T18:15:05.550Z,18.96
2022-10-31T18:18:13.911Z,18.96
2022-10-31T18:19:45.858Z,18.96
2022-10-31T18:21:18.035Z,18.95
2022-10-31T18:22:51.011Z,18.95
2022-10-31T18:24:22.652Z,18.94
2022-10-31T18:25:55.065Z,18.95
2022-10-31T18:27:27.139Z,18.93
2022-10-31T18:28:58.865Z,18.91
2022-10-31T18:30:30.571Z,18.91
2022-10-31T18:32:06.763Z,18.88
2022-10-31T18:33:42.424Z,18.84
2022-10-31T18:35:14.179Z,18.83
2022-10-31T18:36:46.128Z,18.81
2022-10-31T18:38:19.860Z,18.81
2022-10-31T18:39:51.494Z,18.82
2022-10-31T18:41:23.359Z,18.83
2022-10-31T18:42:55.028Z,18.83
2022-10-31T18:44:27.885Z,18.81
2022-10-31T18:46:01.670Z,18.81
2022-10-31T18:47:33.702Z,18.81
2022-10-31T18:49:06.160Z,18.81
2022-10-31T18:50:39.845Z,18.79
2022-10-31T18:52:11.797Z,18.76
2022-10-31T18:53:51.156Z,18.74
2022-10-31T18:55:22.899Z,18.72
2022-10-31T18:56:55.916Z,18.69
2022-10-31T18:58:28.746Z,18.65
2022-10-31T19:00:00.383Z,18.63
2022-10-31T19:01:32.341Z,18.58
2022-10-31T19:03:05.324Z,18.54
2022-10-31T19:04:36.981Z,18.51
2022-10-31T19:06:09.938Z,18.49
2022-10-31T19:07:41.640Z,18.45
2022-10-31T19:09:14.998Z,18.42
2022-10-31T19:10:46.669Z,18.41
2022-10-31T19:12:18.326Z,18.40
2022-10-31T19:13:52.607Z,18.40
2022-10-31T19:15:24.420Z,18.39
2022-10-31T19:16:58.343Z,18.39
2022-10-31T19:18:33.170Z,18.38
2022-10-31T19:20:05.860Z,18.37
2022-10-31T19:21:37.561Z,18.37
2022-10-31T19:23:09.173Z,18.34
2022-10-31T19:24:42.262Z,18.30
2022-10-31T19:26:14.760Z,18.28
2022-10-31T19:27:46.432Z,18.25
2022-10-31T19:29:18.106Z,18.23
2022-10-31T19:30:54.312Z,18.23
2022-10-31T19:32:25.914Z,18.21
2022-10-31T19:33:57.535Z,18.20
2022-10-31T19:35:29.179Z,18.19
2022-10-31T19:37:00.850Z,18.17
2022-10-31T19:38:33.580Z,18.13
2022-10-31T19:40:09.033Z,18.10
2022-10-31T19:41:40.874Z,18.08
2022-10-31T19:43:12.627Z,18.06
2022-10-31T19:44:44.268Z,18.06
2022-10-31T19:46:27.728Z,18.03
2022-10-31T19:48:05.457Z,18.00
2022-10-31T19:49:38.211Z,17.96
2022-10-31T19:51:12.065Z,17.95
2022-10-31T19:52:43.742Z,17.91
2022-10-31T19:54:15.566Z,17.88
2022-10-31T19:55:48.648Z,17.87
2022-10-31T19:57:35.851Z,17.85
2022-10-31T19:59:12.012Z,17.85
2022-10-31T20:00:43.823Z,17.85
2022-10-31T20:02:19.764Z,17.84
2022-10-31T20:03:52.277Z,17.86
2022-10-31T20:05:24.022Z,17.83
2022-10-31T20:06:55.675Z,17.84
2022-10-31T20:08:28.629Z,17.85
2022-10-31T20:10:00.280Z,17.84
2022-10-31T20:11:36.541Z,17.87
2022-10-31T20:13:08.216Z,17.88
2022-10-31T20:14:39.930Z,17.87
2022-10-31T20:16:13.450Z,17.87
2022-10-31T20:17:45.814Z,17.86
2022-10-31T20:19:17.501Z,17.85
2022-10-31T20:20:49.395Z,17.83
2022-10-31T20:22:21.009Z,17.79
2022-10-31T20:23:55.115Z,17.76
2022-10-31T20:25:26.791Z,17.72
2022-10-31T20:26:59.874Z,17.71
2022-10-31T20:28:32.717Z,17.66
2022-10-31T20:30:07.012Z,17.64
2022-10-31T20:31:39.893Z,17.62
2022-10-31T20:33:11.599Z,17.64
2022-10-31T20:34:43.306Z,17.62
2022-10-31T20:36:15.094Z,17.62
2022-10-31T20:37:46.750Z,17.60
2022-10-31T20:39:18.557Z,17.58
2022-10-31T20:40:50.234Z,17.56
2022-10-31T20:42:23.795Z,17.54
2022-10-31T20:43:55.537Z,17.52
2022-10-31T20:45:27.595Z,17.54
2022-10-31T20:46:59.377Z,17.52
2022-10-31T20:48:31.656Z,17.54
2022-10-31T20:50:05.284Z,17.53
2022-10-31T20:51:36.950Z,17.53
2022-10-31T20:53:08.644Z,17.53
2022-10-31T20:54:40.290Z,17.53
2022-10-31T20:56:13.708Z,17.52
2022-10-31T20:57:47.099Z,17.53